sensor_id;sensor_type;location;lat;lon;timestamp;temperature;humidity
65421;DHT22;52028;50.658;14.004;2022-07-06T00:02:13;18.72;62.75
65421;DHT22;52028;50.658;14.004;2022-07-06T00:04:38;18.40;64.05
65421;DHT22;52028;50.658;14.004;2022-07-06T00:07:04;18.34;62.92
65421;DHT22;52028;50.658;14.004;2022-07-06T00:09:29;18.27;63.08
65421;DHT22;52028;50.658;14.004;2022-07-06T00:11:54;18.23;63.28
65421;DHT22;52028;50.658;14.004;2022-07-06T00:14:20;18.29;62.53
65421;DHT22;52028;50.658;14.004;2022-07-06T00:16:45;18.33;62.35
65421;DHT22;52028;50.658;14.004;2022-07-06T00:19:11;18.36;62.17
65421;DHT22;52028;50.658;14.004;2022-07-06T00:21:37;18.22;62.54
65421;DHT22;52028;50.658;14.004;2022-07-06T00:24:03;18.20;62.51
65421;DHT22;52028;50.658;14.004;2022-07-06T00:26:28;18.14;63.37
65421;DHT22;52028;50.658;14.004;2022-07-06T00:28:54;18.14;63.35
65421;DHT22;52028;50.658;14.004;2022-07-06T00:31:19;18.14;63.54
65421;DHT22;52028;50.658;14.004;2022-07-06T00:33:45;18.10;64.08
65421;DHT22;52028;50.658;14.004;2022-07-06T00:36:10;17.99;64.64
65421;DHT22;52028;50.658;14.004;2022-07-06T00:38:35;17.75;65.58
65421;DHT22;52028;50.658;14.004;2022-07-06T00:41:01;17.68;65.82
65421;DHT22;52028;50.658;14.004;2022-07-06T00:43:26;17.68;65.77
65421;DHT22;52028;50.658;14.004;2022-07-06T00:45:51;17.78;64.97
65421;DHT22;52028;50.658;14.004;2022-07-06T00:48:17;17.70;65.09
65421;DHT22;52028;50.658;14.004;2022-07-06T00:50:43;17.74;65.28
65421;DHT22;52028;50.658;14.004;2022-07-06T00:53:08;17.73;65.95
65421;DHT22;52028;50.658;14.004;2022-07-06T00:55:36;17.68;66.06
65421;DHT22;52028;50.658;14.004;2022-07-06T00:58:04;17.81;64.78
65421;DHT22;52028;50.658;14.004;2022-07-06T01:00:30;17.99;64.01
65421;DHT22;52028;50.658;14.004;2022-07-06T01:02:56;18.12;63.40
65421;DHT22;52028;50.658;14.004;2022-07-06T01:05:25;18.16;63.09
65421;DHT22;52028;50.658;14.004;2022-07-06T01:07:52;18.23;63.15
65421;DHT22;52028;50.658;14.004;2022-07-06T01:10:19;18.30;63.31
65421;DHT22;52028;50.658;14.004;2022-07-06T01:12:46;18.33;63.40
65421;DHT22;52028;50.658;14.004;2022-07-06T01:15:14;18.37;63.11
65421;DHT22;52028;50.658;14.004;2022-07-06T01:17:40;18.38;63.02
65421;DHT22;52028;50.658;14.004;2022-07-06T01:20:22;18.23;64.36
65421;DHT22;52028;50.658;14.004;2022-07-06T01:22:49;17.95;65.58
65421;DHT22;52028;50.658;14.004;2022-07-06T01:25:15;17.88;66.11
65421;DHT22;52028;50.658;14.004;2022-07-06T01:27:42;17.89;66.34
65421;DHT22;52028;50.658;14.004;2022-07-06T01:30:12;17.96;66.14
65421;DHT22;52028;50.658;14.004;2022-07-06T01:32:38;18.08;65.73
65421;DHT22;52028;50.658;14.004;2022-07-06T01:35:06;18.09;65.52
65421;DHT22;52028;50.658;14.004;2022-07-06T01:37:32;18.19;65.42
65421;DHT22;52028;50.658;14.004;2022-07-06T01:39:58;18.20;64.99
65421;DHT22;52028;50.658;14.004;2022-07-06T01:42:24;18.16;63.01
65421;DHT22;52028;50.658;14.004;2022-07-06T01:44:50;18.08;62.39
65421;DHT22;52028;50.658;14.004;2022-07-06T01:47:15;18.09;62.90
65421;DHT22;52028;50.658;14.004;2022-07-06T01:49:40;18.00;63.51
65421;DHT22;52028;50.658;14.004;2022-07-06T01:52:06;17.88;63.74
65421;DHT22;52028;50.658;14.004;2022-07-06T01:54:31;17.89;64.08
65421;DHT22;52028;50.658;14.004;2022-07-06T01:56:56;17.89;64.36
65421;DHT22;52028;50.658;14.004;2022-07-06T01:59:22;17.92;64.35
65421;DHT22;52028;50.658;14.004;2022-07-06T02:01:47;17.84;65.53
65421;DHT22;52028;50.658;14.004;2022-07-06T02:04:12;17.91;65.57
65421;DHT22;52028;50.658;14.004;2022-07-06T02:06:38;17.91;65.32
65421;DHT22;52028;50.658;14.004;2022-07-06T02:09:03;18.03;65.08
65421;DHT22;52028;50.658;14.004;2022-07-06T02:11:29;18.02;65.58
65421;DHT22;52028;50.658;14.004;2022-07-06T02:13:54;18.02;65.93
65421;DHT22;52028;50.658;14.004;2022-07-06T02:16:20;17.99;66.31
65421;DHT22;52028;50.658;14.004;2022-07-06T02:18:45;18.12;65.82
65421;DHT22;52028;50.658;14.004;2022-07-06T02:21:10;18.14;65.68
65421;DHT22;52028;50.658;14.004;2022-07-06T02:23:36;18.16;65.72
65421;DHT22;52028;50.658;14.004;2022-07-06T02:26:01;18.25;65.47
65421;DHT22;52028;50.658;14.004;2022-07-06T02:28:26;18.17;65.27
65421;DHT22;52028;50.658;14.004;2022-07-06T02:30:52;18.13;65.48
65421;DHT22;52028;50.658;14.004;2022-07-06T02:33:17;18.06;66.09
65421;DHT22;52028;50.658;14.004;2022-07-06T02:35:43;17.99;66.30
65421;DHT22;52028;50.658;14.004;2022-07-06T02:38:09;17.77;67.27
65421;DHT22;52028;50.658;14.004;2022-07-06T02:40:35;17.54;68.40
65421;DHT22;52028;50.658;14.004;2022-07-06T02:43:00;17.36;69.21
65421;DHT22;52028;50.658;14.004;2022-07-06T02:45:26;17.34;69.05
65421;DHT22;52028;50.658;14.004;2022-07-06T02:47:51;17.19;69.29
65421;DHT22;52028;50.658;14.004;2022-07-06T02:50:18;17.05;69.94
65421;DHT22;52028;50.658;14.004;2022-07-06T02:52:43;16.98;70.61
65421;DHT22;52028;50.658;14.004;2022-07-06T02:55:09;16.95;71.15
65421;DHT22;52028;50.658;14.004;2022-07-06T02:57:34;16.94;71.38
65421;DHT22;52028;50.658;14.004;2022-07-06T02:59:59;16.99;71.60
65421;DHT22;52028;50.658;14.004;2022-07-06T03:02:25;17.08;71.45
65421;DHT22;52028;50.658;14.004;2022-07-06T03:04:50;17.06;71.53
65421;DHT22;52028;50.658;14.004;2022-07-06T03:07:16;16.96;71.76
65421;DHT22;52028;50.658;14.004;2022-07-06T03:09:41;16.94;72.20
65421;DHT22;52028;50.658;14.004;2022-07-06T03:12:07;17.01;72.36
65421;DHT22;52028;50.658;14.004;2022-07-06T03:14:32;16.92;72.32
65421;DHT22;52028;50.658;14.004;2022-07-06T03:16:58;16.91;72.78
65421;DHT22;52028;50.658;14.004;2022-07-06T03:19:23;16.96;72.85
65421;DHT22;52028;50.658;14.004;2022-07-06T03:21:48;17.01;72.62
65421;DHT22;52028;50.658;14.004;2022-07-06T03:24:14;17.08;72.27
65421;DHT22;52028;50.658;14.004;2022-07-06T03:26:39;17.13;72.16
65421;DHT22;52028;50.658;14.004;2022-07-06T03:29:05;17.11;71.81
65421;DHT22;52028;50.658;14.004;2022-07-06T03:31:30;17.02;72.03
65421;DHT22;52028;50.658;14.004;2022-07-06T03:33:56;17.08;71.84
65421;DHT22;52028;50.658;14.004;2022-07-06T03:36:22;17.16;75.20
65421;DHT22;52028;50.658;14.004;2022-07-06T03:38:47;16.85;76.76
65421;DHT22;52028;50.658;14.004;2022-07-06T03:41:12;16.69;76.97
65421;DHT22;52028;50.658;14.004;2022-07-06T03:43:38;16.56;77.43
65421;DHT22;52028;50.658;14.004;2022-07-06T03:46:03;16.43;79.49
65421;DHT22;52028;50.658;14.004;2022-07-06T03:48:28;16.37;80.06
65421;DHT22;52028;50.658;14.004;2022-07-06T03:50:54;16.30;79.68
65421;DHT22;52028;50.658;14.004;2022-07-06T03:53:19;16.27;79.75
65421;DHT22;52028;50.658;14.004;2022-07-06T03:55:45;16.27;80.48
65421;DHT22;52028;50.658;14.004;2022-07-06T03:58:30;16.49;80.26
65421;DHT22;52028;50.658;14.004;2022-07-06T04:00:55;16.57;80.02
65421;DHT22;52028;50.658;14.004;2022-07-06T04:03:21;16.67;79.66
65421;DHT22;52028;50.658;14.004;2022-07-06T04:05:46;16.82;79.54
65421;DHT22;52028;50.658;14.004;2022-07-06T04:08:12;16.89;79.64
65421;DHT22;52028;50.658;14.004;2022-07-06T04:10:37;16.94;80.01
65421;DHT22;52028;50.658;14.004;2022-07-06T04:13:02;16.94;79.98
65421;DHT22;52028;50.658;14.004;2022-07-06T04:15:28;16.86;79.95
65421;DHT22;52028;50.658;14.004;2022-07-06T04:17:53;16.95;80.02
65421;DHT22;52028;50.658;14.004;2022-07-06T04:20:22;16.95;80.03
65421;DHT22;52028;50.658;14.004;2022-07-06T04:22:48;16.99;78.86
65421;DHT22;52028;50.658;14.004;2022-07-06T04:25:14;17.08;79.16
65421;DHT22;52028;50.658;14.004;2022-07-06T04:27:39;17.02;79.71
65421;DHT22;52028;50.658;14.004;2022-07-06T04:30:07;16.96;79.09
65421;DHT22;52028;50.658;14.004;2022-07-06T04:32:32;16.98;78.64
65421;DHT22;52028;50.658;14.004;2022-07-06T04:34:58;17.01;78.21
65421;DHT22;52028;50.658;14.004;2022-07-06T04:37:24;17.02;77.81
65421;DHT22;52028;50.658;14.004;2022-07-06T04:39:49;16.99;79.15
65421;DHT22;52028;50.658;14.004;2022-07-06T04:42:14;16.91;79.70
65421;DHT22;52028;50.658;14.004;2022-07-06T04:44:40;16.82;80.28
65421;DHT22;52028;50.658;14.004;2022-07-06T04:47:05;16.75;79.97
65421;DHT22;52028;50.658;14.004;2022-07-06T04:49:30;16.72;79.37
65421;DHT22;52028;50.658;14.004;2022-07-06T04:51:56;16.68;79.18
65421;DHT22;52028;50.658;14.004;2022-07-06T04:54:21;16.61;79.57
65421;DHT22;52028;50.658;14.004;2022-07-06T04:56:47;16.58;79.60
65421;DHT22;52028;50.658;14.004;2022-07-06T04:59:13;16.56;81.01
65421;DHT22;52028;50.658;14.004;2022-07-06T05:01:38;16.47;78.87
65421;DHT22;52028;50.658;14.004;2022-07-06T05:04:04;16.32;80.01
65421;DHT22;52028;50.658;14.004;2022-07-06T05:06:29;16.23;78.59
65421;DHT22;52028;50.658;14.004;2022-07-06T05:08:55;16.30;81.04
65421;DHT22;52028;50.658;14.004;2022-07-06T05:11:20;16.40;79.18
65421;DHT22;52028;50.658;14.004;2022-07-06T05:13:45;16.57;80.28
65421;DHT22;52028;50.658;14.004;2022-07-06T05:16:11;16.58;79.72
65421;DHT22;52028;50.658;14.004;2022-07-06T05:18:36;16.72;80.12
65421;DHT22;52028;50.658;14.004;2022-07-06T05:21:02;16.75;79.90
65421;DHT22;52028;50.658;14.004;2022-07-06T05:23:27;16.74;77.33
65421;DHT22;52028;50.658;14.004;2022-07-06T05:25:53;16.79;77.93
65421;DHT22;52028;50.658;14.004;2022-07-06T05:28:18;16.85;78.73
65421;DHT22;52028;50.658;14.004;2022-07-06T05:30:44;16.88;78.45
65421;DHT22;52028;50.658;14.004;2022-07-06T05:33:09;16.95;78.71
65421;DHT22;52028;50.658;14.004;2022-07-06T05:35:35;17.11;77.51
65421;DHT22;52028;50.658;14.004;2022-07-06T05:38:00;17.15;77.59
65421;DHT22;52028;50.658;14.004;2022-07-06T05:40:25;17.20;77.56
65421;DHT22;52028;50.658;14.004;2022-07-06T05:42:51;17.23;77.10
65421;DHT22;52028;50.658;14.004;2022-07-06T05:45:16;17.24;77.19
65421;DHT22;52028;50.658;14.004;2022-07-06T05:47:41;17.39;75.49
65421;DHT22;52028;50.658;14.004;2022-07-06T05:50:25;17.37;74.74
65421;DHT22;52028;50.658;14.004;2022-07-06T05:52:58;17.48;75.42
65421;DHT22;52028;50.658;14.004;2022-07-06T05:55:24;17.54;75.46
65421;DHT22;52028;50.658;14.004;2022-07-06T05:57:49;17.64;74.91
65421;DHT22;52028;50.658;14.004;2022-07-06T06:00:15;17.81;74.57
65421;DHT22;52028;50.658;14.004;2022-07-06T06:02:42;17.79;73.69
65421;DHT22;52028;50.658;14.004;2022-07-06T06:05:09;17.84;72.89
65421;DHT22;52028;50.658;14.004;2022-07-06T06:07:35;17.88;71.29
65421;DHT22;52028;50.658;14.004;2022-07-06T06:10:05;17.91;71.13
65421;DHT22;52028;50.658;14.004;2022-07-06T06:12:31;18.00;70.18
65421;DHT22;52028;50.658;14.004;2022-07-06T06:14:57;18.06;69.74
65421;DHT22;52028;50.658;14.004;2022-07-06T06:17:23;18.16;68.92
65421;DHT22;52028;50.658;14.004;2022-07-06T06:19:48;18.26;68.07
65421;DHT22;52028;50.658;14.004;2022-07-06T06:22:14;18.38;67.49
65421;DHT22;52028;50.658;14.004;2022-07-06T06:24:39;18.51;63.27
65421;DHT22;52028;50.658;14.004;2022-07-06T06:27:04;18.78;63.37
65421;DHT22;52028;50.658;14.004;2022-07-06T06:29:30;18.89;63.35
65421;DHT22;52028;50.658;14.004;2022-07-06T06:31:55;18.82;63.94
65421;DHT22;52028;50.658;14.004;2022-07-06T06:34:20;18.78;65.37
65421;DHT22;52028;50.658;14.004;2022-07-06T06:36:46;18.85;61.25
65421;DHT22;52028;50.658;14.004;2022-07-06T06:39:11;18.91;60.03
65421;DHT22;52028;50.658;14.004;2022-07-06T06:41:36;18.99;61.08
65421;DHT22;52028;50.658;14.004;2022-07-06T06:44:02;19.16;60.88
65421;DHT22;52028;50.658;14.004;2022-07-06T06:46:27;19.35;60.67
65421;DHT22;52028;50.658;14.004;2022-07-06T06:48:53;19.37;60.17
65421;DHT22;52028;50.658;14.004;2022-07-06T06:51:18;19.46;60.00
65421;DHT22;52028;50.658;14.004;2022-07-06T06:53:43;19.47;60.01
65421;DHT22;52028;50.658;14.004;2022-07-06T06:56:09;19.50;58.54
65421;DHT22;52028;50.658;14.004;2022-07-06T06:58:34;19.51;57.84
65421;DHT22;52028;50.658;14.004;2022-07-06T07:00:59;19.60;59.72
65421;DHT22;52028;50.658;14.004;2022-07-06T07:03:25;19.65;56.75
65421;DHT22;52028;50.658;14.004;2022-07-06T07:05:50;19.71;56.18
65421;DHT22;52028;50.658;14.004;2022-07-06T07:08:16;19.62;55.78
65421;DHT22;52028;50.658;14.004;2022-07-06T07:10:41;19.64;55.62
65421;DHT22;52028;50.658;14.004;2022-07-06T07:13:06;19.62;56.44
65421;DHT22;52028;50.658;14.004;2022-07-06T07:15:32;19.72;55.92
65421;DHT22;52028;50.658;14.004;2022-07-06T07:17:58;19.69;55.65
65421;DHT22;52028;50.658;14.004;2022-07-06T07:20:23;19.77;57.01
65421;DHT22;52028;50.658;14.004;2022-07-06T07:22:50;19.81;57.40
65421;DHT22;52028;50.658;14.004;2022-07-06T07:25:15;19.78;55.76
65421;DHT22;52028;50.658;14.004;2022-07-06T07:27:41;19.71;56.48
65421;DHT22;52028;50.658;14.004;2022-07-06T07:30:06;19.68;57.46
65421;DHT22;52028;50.658;14.004;2022-07-06T07:32:32;19.67;58.47
65421;DHT22;52028;50.658;14.004;2022-07-06T07:34:57;19.55;57.49
65421;DHT22;52028;50.658;14.004;2022-07-06T07:37:23;19.43;57.64
65421;DHT22;52028;50.658;14.004;2022-07-06T07:39:48;19.47;57.35
65421;DHT22;52028;50.658;14.004;2022-07-06T07:42:13;19.50;58.07
65421;DHT22;52028;50.658;14.004;2022-07-06T07:44:39;19.50;58.33
65421;DHT22;52028;50.658;14.004;2022-07-06T07:47:06;19.54;58.56
65421;DHT22;52028;50.658;14.004;2022-07-06T07:49:31;19.60;58.64
65421;DHT22;52028;50.658;14.004;2022-07-06T07:51:57;19.69;58.18
65421;DHT22;52028;50.658;14.004;2022-07-06T07:54:22;19.75;57.28
65421;DHT22;52028;50.658;14.004;2022-07-06T07:56:48;19.68;57.47
65421;DHT22;52028;50.658;14.004;2022-07-06T07:59:13;19.74;56.21
65421;DHT22;52028;50.658;14.004;2022-07-06T08:01:39;19.71;56.44
65421;DHT22;52028;50.658;14.004;2022-07-06T08:04:05;19.74;57.20
65421;DHT22;52028;50.658;14.004;2022-07-06T08:06:30;19.67;56.96
65421;DHT22;52028;50.658;14.004;2022-07-06T08:08:56;19.61;56.82
65421;DHT22;52028;50.658;14.004;2022-07-06T08:11:21;19.74;56.77
65421;DHT22;52028;50.658;14.004;2022-07-06T08:13:47;19.72;55.83
65421;DHT22;52028;50.658;14.004;2022-07-06T08:16:13;19.79;55.85
65421;DHT22;52028;50.658;14.004;2022-07-06T08:18:38;19.78;56.78
65421;DHT22;52028;50.658;14.004;2022-07-06T08:21:04;19.78;56.78
65421;DHT22;52028;50.658;14.004;2022-07-06T08:23:29;19.99;56.78
65421;DHT22;52028;50.658;14.004;2022-07-06T08:25:55;20.02;55.62
65421;DHT22;52028;50.658;14.004;2022-07-06T08:28:20;20.03;55.17
65421;DHT22;52028;50.658;14.004;2022-07-06T08:30:46;20.08;55.59
65421;DHT22;52028;50.658;14.004;2022-07-06T08:33:13;20.14;55.25
65421;DHT22;52028;50.658;14.004;2022-07-06T08:35:39;20.17;55.56
65421;DHT22;52028;50.658;14.004;2022-07-06T08:38:04;20.33;55.74
65421;DHT22;52028;50.658;14.004;2022-07-06T08:40:33;20.39;53.49
65421;DHT22;52028;50.658;14.004;2022-07-06T08:42:59;20.45;53.32
65421;DHT22;52028;50.658;14.004;2022-07-06T08:45:25;20.50;53.28
65421;DHT22;52028;50.658;14.004;2022-07-06T08:47:53;20.39;52.66
65421;DHT22;52028;50.658;14.004;2022-07-06T08:50:19;20.33;53.03
65421;DHT22;52028;50.658;14.004;2022-07-06T08:52:47;20.48;52.36
65421;DHT22;52028;50.658;14.004;2022-07-06T08:55:13;20.52;51.73
65421;DHT22;52028;50.658;14.004;2022-07-06T08:57:40;20.65;51.76
65421;DHT22;52028;50.658;14.004;2022-07-06T09:00:09;20.81;52.20
65421;DHT22;52028;50.658;14.004;2022-07-06T09:02:35;21.04;52.36
65421;DHT22;52028;50.658;14.004;2022-07-06T09:05:02;21.31;49.76
65421;DHT22;52028;50.658;14.004;2022-07-06T09:07:28;21.55;49.84
65421;DHT22;52028;50.658;14.004;2022-07-06T09:09:54;21.64;49.08
65421;DHT22;52028;50.658;14.004;2022-07-06T09:12:20;21.54;49.69
65421;DHT22;52028;50.658;14.004;2022-07-06T09:14:45;21.31;48.97
65421;DHT22;52028;50.658;14.004;2022-07-06T09:17:12;21.26;50.07
65421;DHT22;52028;50.658;14.004;2022-07-06T09:19:37;21.19;51.44
65421;DHT22;52028;50.658;14.004;2022-07-06T09:22:03;21.10;52.16
65421;DHT22;52028;50.658;14.004;2022-07-06T09:24:30;21.36;51.61
65421;DHT22;52028;50.658;14.004;2022-07-06T09:26:57;21.37;50.74
65421;DHT22;52028;50.658;14.004;2022-07-06T09:29:32;21.46;51.74
65421;DHT22;52028;50.658;14.004;2022-07-06T09:32:02;21.65;51.13
65421;DHT22;52028;50.658;14.004;2022-07-06T09:34:44;21.83;50.51
65421;DHT22;52028;50.658;14.004;2022-07-06T09:37:10;22.24;49.31
65421;DHT22;52028;50.658;14.004;2022-07-06T09:39:36;22.51;48.12
65421;DHT22;52028;50.658;14.004;2022-07-06T09:42:03;22.57;46.91
65421;DHT22;52028;50.658;14.004;2022-07-06T09:44:42;22.14;46.95
65421;DHT22;52028;50.658;14.004;2022-07-06T09:47:09;22.21;47.39
65421;DHT22;52028;50.658;14.004;2022-07-06T09:49:36;22.27;47.94
65421;DHT22;52028;50.658;14.004;2022-07-06T09:52:04;22.12;48.99
65421;DHT22;52028;50.658;14.004;2022-07-06T09:54:30;22.09;48.90
65421;DHT22;52028;50.658;14.004;2022-07-06T09:56:56;22.19;48.92
65421;DHT22;52028;50.658;14.004;2022-07-06T09:59:24;22.39;47.77
65421;DHT22;52028;50.658;14.004;2022-07-06T10:02:01;22.45;49.17
65421;DHT22;52028;50.658;14.004;2022-07-06T10:04:28;22.39;48.60
65421;DHT22;52028;50.658;14.004;2022-07-06T10:06:57;22.21;48.33
65421;DHT22;52028;50.658;14.004;2022-07-06T10:09:23;22.32;47.69
65421;DHT22;52028;50.658;14.004;2022-07-06T10:11:53;22.44;47.04
65421;DHT22;52028;50.658;14.004;2022-07-06T10:14:26;22.71;46.82
65421;DHT22;52028;50.658;14.004;2022-07-06T10:16:55;22.81;45.82
65421;DHT22;52028;50.658;14.004;2022-07-06T10:19:21;22.88;45.51
65421;DHT22;52028;50.658;14.004;2022-07-06T10:21:47;23.09;45.59
65421;DHT22;52028;50.658;14.004;2022-07-06T10:24:13;23.09;44.23
65421;DHT22;52028;50.658;14.004;2022-07-06T10:26:40;22.95;44.47
65421;DHT22;52028;50.658;14.004;2022-07-06T10:29:06;22.94;44.08
65421;DHT22;52028;50.658;14.004;2022-07-06T10:31:34;23.07;42.98
65421;DHT22;52028;50.658;14.004;2022-07-06T10:34:01;22.78;43.39
65421;DHT22;52028;50.658;14.004;2022-07-06T10:36:28;22.69;43.47
65421;DHT22;52028;50.658;14.004;2022-07-06T10:38:54;22.92;41.92
65421;DHT22;52028;50.658;14.004;2022-07-06T10:41:33;22.72;40.95
65421;DHT22;52028;50.658;14.004;2022-07-06T10:44:23;22.34;42.27
65421;DHT22;52028;50.658;14.004;2022-07-06T10:46:50;22.47;43.31
65421;DHT22;52028;50.658;14.004;2022-07-06T10:49:16;22.85;42.51
65421;DHT22;52028;50.658;14.004;2022-07-06T10:51:42;23.06;41.36
65421;DHT22;52028;50.658;14.004;2022-07-06T10:54:09;23.17;41.38
65421;DHT22;52028;50.658;14.004;2022-07-06T10:56:38;23.28;41.41
65421;DHT22;52028;50.658;14.004;2022-07-06T10:59:17;23.15;41.33
65421;DHT22;52028;50.658;14.004;2022-07-06T11:04:36;22.95;41.35
65421;DHT22;52028;50.658;14.004;2022-07-06T11:07:29;22.85;41.08
65421;DHT22;52028;50.658;14.004;2022-07-06T11:09:59;23.06;42.19
65421;DHT22;52028;50.658;14.004;2022-07-06T11:12:25;23.39;40.53
65421;DHT22;52028;50.658;14.004;2022-07-06T11:14:52;23.86;39.97
65421;DHT22;52028;50.658;14.004;2022-07-06T11:17:18;24.05;40.23
65421;DHT22;52028;50.658;14.004;2022-07-06T11:19:50;24.23;38.69
65421;DHT22;52028;50.658;14.004;2022-07-06T11:22:17;24.13;38.88
65421;DHT22;52028;50.658;14.004;2022-07-06T11:24:44;23.89;39.61
65421;DHT22;52028;50.658;14.004;2022-07-06T11:27:09;23.89;39.96
65421;DHT22;52028;50.658;14.004;2022-07-06T11:29:36;23.88;39.01
65421;DHT22;52028;50.658;14.004;2022-07-06T11:32:06;24.26;39.89
65421;DHT22;52028;50.658;14.004;2022-07-06T11:34:36;24.92;39.00
65421;DHT22;52028;50.658;14.004;2022-07-06T11:37:04;25.36;38.18
65421;DHT22;52028;50.658;14.004;2022-07-06T11:39:32;25.62;37.54
65421;DHT22;52028;50.658;14.004;2022-07-06T11:41:58;26.13;36.78
65421;DHT22;52028;50.658;14.004;2022-07-06T11:44:24;26.91;34.52
65421;DHT22;52028;50.658;14.004;2022-07-06T11:46:50;26.99;33.70
65421;DHT22;52028;50.658;14.004;2022-07-06T11:49:16;26.13;35.10
65421;DHT22;52028;50.658;14.004;2022-07-06T11:51:42;27.68;33.07
65421;DHT22;52028;50.658;14.004;2022-07-06T11:54:10;27.71;32.65
65421;DHT22;52028;50.658;14.004;2022-07-06T11:56:36;27.81;32.65
65421;DHT22;52028;50.658;14.004;2022-07-06T11:59:02;28.55;31.52
65421;DHT22;52028;50.658;14.004;2022-07-06T12:01:29;29.30;30.37
65421;DHT22;52028;50.658;14.004;2022-07-06T12:04:00;28.47;29.80
65421;DHT22;52028;50.658;14.004;2022-07-06T12:06:27;28.06;30.77
65421;DHT22;52028;50.658;14.004;2022-07-06T12:08:55;29.06;30.34
65421;DHT22;52028;50.658;14.004;2022-07-06T12:11:33;28.89;30.70
65421;DHT22;52028;50.658;14.004;2022-07-06T12:14:01;29.19;30.63
65421;DHT22;52028;50.658;14.004;2022-07-06T12:16:35;27.82;32.63
65421;DHT22;52028;50.658;14.004;2022-07-06T12:19:03;28.57;30.83
65421;DHT22;52028;50.658;14.004;2022-07-06T12:21:29;29.27;30.00
65421;DHT22;52028;50.658;14.004;2022-07-06T12:23:55;29.96;28.49
65421;DHT22;52028;50.658;14.004;2022-07-06T12:26:23;30.92;27.86
65421;DHT22;52028;50.658;14.004;2022-07-06T12:29:08;31.02;28.54
65421;DHT22;52028;50.658;14.004;2022-07-06T12:31:36;32.06;27.70
65421;DHT22;52028;50.658;14.004;2022-07-06T12:34:03;32.78;25.60
65421;DHT22;52028;50.658;14.004;2022-07-06T12:36:29;33.57;24.90
65421;DHT22;52028;50.658;14.004;2022-07-06T12:38:54;33.23;24.05
65421;DHT22;52028;50.658;14.004;2022-07-06T12:41:31;32.15;26.16
65421;DHT22;52028;50.658;14.004;2022-07-06T12:44:08;31.26;26.49
65421;DHT22;52028;50.658;14.004;2022-07-06T12:46:38;31.44;26.33
65421;DHT22;52028;50.658;14.004;2022-07-06T12:49:16;31.22;26.58
65421;DHT22;52028;50.658;14.004;2022-07-06T12:51:54;31.50;26.13
65421;DHT22;52028;50.658;14.004;2022-07-06T12:54:20;32.15;25.83
65421;DHT22;52028;50.658;14.004;2022-07-06T12:59:27;33.66;23.95
65421;DHT22;52028;50.658;14.004;2022-07-06T13:01:53;34.08;24.24
65421;DHT22;52028;50.658;14.004;2022-07-06T13:04:26;33.82;23.05
65421;DHT22;52028;50.658;14.004;2022-07-06T13:06:52;32.84;23.37
65421;DHT22;52028;50.658;14.004;2022-07-06T13:09:17;32.70;23.73
65421;DHT22;52028;50.658;14.004;2022-07-06T13:11:44;31.23;25.42
65421;DHT22;52028;50.658;14.004;2022-07-06T13:14:09;30.67;26.33
65421;DHT22;52028;50.658;14.004;2022-07-06T13:16:35;31.86;24.85
65421;DHT22;52028;50.658;14.004;2022-07-06T13:19:01;31.71;24.65
65421;DHT22;52028;50.658;14.004;2022-07-06T13:21:26;30.64;25.96
65421;DHT22;52028;50.658;14.004;2022-07-06T13:23:52;31.53;25.33
65421;DHT22;52028;50.658;14.004;2022-07-06T13:26:17;31.82;24.41
65421;DHT22;52028;50.658;14.004;2022-07-06T13:28:43;32.40;24.15
65421;DHT22;52028;50.658;14.004;2022-07-06T13:31:08;32.81;24.16
65421;DHT22;52028;50.658;14.004;2022-07-06T13:33:34;33.34;23.04
65421;DHT22;52028;50.658;14.004;2022-07-06T13:36:00;32.98;22.46
65421;DHT22;52028;50.658;14.004;2022-07-06T13:38:26;33.26;22.16
65421;DHT22;52028;50.658;14.004;2022-07-06T13:40:52;32.60;22.73
65421;DHT22;52028;50.658;14.004;2022-07-06T13:43:17;32.75;22.96
65421;DHT22;52028;50.658;14.004;2022-07-06T13:45:43;33.26;23.66
65421;DHT22;52028;50.658;14.004;2022-07-06T13:48:08;33.46;23.49
65421;DHT22;52028;50.658;14.004;2022-07-06T13:50:34;32.88;23.96
65421;DHT22;52028;50.658;14.004;2022-07-06T13:52:59;32.72;24.19
65421;DHT22;52028;50.658;14.004;2022-07-06T13:55:25;33.29;24.08
65421;DHT22;52028;50.658;14.004;2022-07-06T13:57:51;33.80;22.72
65421;DHT22;52028;50.658;14.004;2022-07-06T14:00:17;33.22;22.61
65421;DHT22;52028;50.658;14.004;2022-07-06T14:02:44;30.10;25.55
65421;DHT22;52028;50.658;14.004;2022-07-06T14:05:09;31.12;25.31
65421;DHT22;52028;50.658;14.004;2022-07-06T14:07:35;32.19;24.29
65421;DHT22;52028;50.658;14.004;2022-07-06T14:10:00;31.44;24.43
65421;DHT22;52028;50.658;14.004;2022-07-06T14:12:26;32.02;24.27
65421;DHT22;52028;50.658;14.004;2022-07-06T14:14:52;32.36;23.50
65421;DHT22;52028;50.658;14.004;2022-07-06T14:17:17;32.25;22.73
65421;DHT22;52028;50.658;14.004;2022-07-06T14:19:43;32.33;23.52
65421;DHT22;52028;50.658;14.004;2022-07-06T14:22:08;32.40;23.03
65421;DHT22;52028;50.658;14.004;2022-07-06T14:24:33;32.32;23.35
65421;DHT22;52028;50.658;14.004;2022-07-06T14:27:00;32.82;23.21
65421;DHT22;52028;50.658;14.004;2022-07-06T14:29:26;32.78;22.62
65421;DHT22;52028;50.658;14.004;2022-07-06T14:31:51;33.18;22.60
65421;DHT22;52028;50.658;14.004;2022-07-06T14:34:16;34.06;21.38
65421;DHT22;52028;50.658;14.004;2022-07-06T14:36:42;34.13;21.17
65421;DHT22;52028;50.658;14.004;2022-07-06T14:39:07;34.39;21.01
65421;DHT22;52028;50.658;14.004;2022-07-06T14:41:32;34.98;21.58
65421;DHT22;52028;50.658;14.004;2022-07-06T14:43:58;33.75;22.46
65421;DHT22;52028;50.658;14.004;2022-07-06T14:46:23;32.22;25.36
65421;DHT22;52028;50.658;14.004;2022-07-06T14:48:49;32.89;24.27
65421;DHT22;52028;50.658;14.004;2022-07-06T14:51:14;33.42;23.06
65421;DHT22;52028;50.658;14.004;2022-07-06T14:53:39;33.70;23.69
65421;DHT22;52028;50.658;14.004;2022-07-06T14:56:05;33.12;23.08
65421;DHT22;52028;50.658;14.004;2022-07-06T14:58:30;33.64;22.99
65421;DHT22;52028;50.658;14.004;2022-07-06T15:00:55;34.11;22.46
65421;DHT22;52028;50.658;14.004;2022-07-06T15:03:21;34.09;22.07
65421;DHT22;52028;50.658;14.004;2022-07-06T15:05:46;34.19;21.61
65421;DHT22;52028;50.658;14.004;2022-07-06T15:08:14;33.46;22.24
65421;DHT22;52028;50.658;14.004;2022-07-06T15:10:41;32.91;22.71
65421;DHT22;52028;50.658;14.004;2022-07-06T15:13:06;33.63;22.37
65421;DHT22;52028;50.658;14.004;2022-07-06T15:15:32;33.54;23.06
65421;DHT22;52028;50.658;14.004;2022-07-06T15:17:58;33.58;23.48